Time;durP1;ratioP1;P1;durP2;ratioP2;P2;SDS_P1;SDS_P2;PMS_P1;PMS_P2;Temp;Humidity;BMP_temperature;BMP_pressure;BME280_temperature;BME280_humidity;BME280_pressure;Samples;Min_cycle;Max_cycle;Signal;HPM_P1;HPM_P2
2024/02/20 00:02:15;;;;;;;;;;;;;;;15.97;42.83;101651.47;4944697;29;1177;-48
2024/02/20 00:04:41;;;;;;;;;;;;;;;17.20;39.82;101656.91;4957942;29;1045;-52
2024/02/20 00:07:07;;;;;;;;;;;;;;;16.56;41.08;101648.19;4957431;29;1062;-50
2024/02/20 00:09:33;;;;;;;;;;;;;;;15.93;41.98;101647.31;4957471;29;1969;-49
2024/02/20 00:12:00;;;;;;;;;;;;;;;15.59;43.11;101642.91;4957707;28;1219;-50
2024/02/20 00:14:26;;;;;;;;;;;;;;;15.42;43.62;101651.78;4961106;29;1054;-50
2024/02/20 00:16:52;;;;;;;;;;;;;;;15.48;43.79;101648.78;4961291;29;1122;-48
2024/02/20 00:19:21;;;;;;;;;;;;;;;16.93;40.63;101649.59;4961095;29;2789;-48
2024/02/20 00:21:46;;;;;;;;;;;;;;;16.73;40.61;101646.34;4961262;29;1031;-53
2024/02/20 00:24:12;;;;;;;;;;;;;;;15.99;42.35;101639.88;4960774;29;1159;-45
2024/02/20 00:26:38;;;;;;;;;;;;;;;15.59;42.91;101631.44;4960571;28;1061;-51
2024/02/20 00:29:03;;;;;;;;;;;;;;;15.38;43.37;101635.16;4943677;29;1956;-51
2024/02/20 00:31:32;;;;;;;;;;;;;;;15.23;43.74;101636.84;4960870;29;998;-56
2024/02/20 00:34:01;;;;;;;;;;;;;;;16.25;42.00;101631.34;4960767;29;1082;-51
2024/02/20 00:36:26;;;;;;;;;;;;;;;17.21;39.87;101632.00;4960544;29;1033;-51
2024/02/20 00:38:52;;;;;;;;;;;;;;;16.27;41.42;101622.38;4948283;29;1054;-49
2024/02/20 00:41:21;;;;;;;;;;;;;;;15.74;42.98;101625.31;4960932;29;1014;-52
2024/02/20 00:43:46;;;;;;;;;;;;;;;15.49;43.29;101626.66;4953460;29;1216;-52
2024/02/20 00:46:22;;;;;;;;;;;;;;;15.29;43.80;101617.13;4954837;29;1099;-53
2024/02/20 00:48:48;;;;;;;;;;;;;;;16.12;42.24;101616.16;4953831;28;2757;-52
2024/02/20 00:51:16;;;;;;;;;;;;;;;17.23;39.67;101614.16;4947962;29;1110;-51
2024/02/20 00:53:42;;;;;;;;;;;;;;;16.55;40.86;101622.56;4960177;29;1170;-55
2024/02/20 00:56:07;;;;;;;;;;;;;;;15.94;42.50;101614.50;4947662;29;1101;-49
2024/02/20 00:58:33;;;;;;;;;;;;;;;15.60;43.29;101612.78;4956134;29;1163;-52
2024/02/20 01:01:00;;;;;;;;;;;;;;;15.47;43.22;101606.44;4959642;29;1077;-57
2024/02/20 01:03:26;;;;;;;;;;;;;;;15.22;43.59;101603.34;4960274;29;1128;-53
2024/02/20 01:05:51;;;;;;;;;;;;;;;15.79;43.02;101596.72;4959992;29;1092;-50
2024/02/20 01:08:17;;;;;;;;;;;;;;;17.01;40.12;101603.03;4960180;29;1058;-51
2024/02/20 01:10:43;;;;;;;;;;;;;;;16.87;40.12;101603.84;4959766;29;1906;-49
2024/02/20 01:13:09;;;;;;;;;;;;;;;16.02;42.36;101594.59;4950428;29;1026;-51
2024/02/20 01:15:34;;;;;;;;;;;;;;;15.69;43.08;101606.13;4957013;29;1043;-47
2024/02/20 01:18:00;;;;;;;;;;;;;;;15.46;43.62;101600.31;4960208;29;2587;-51
2024/02/20 01:20:27;;;;;;;;;;;;;;;15.29;43.50;101598.56;4959612;29;1116;-51
2024/02/20 01:22:53;;;;;;;;;;;;;;;16.35;41.96;101600.69;4960257;28;1011;-50
2024/02/20 01:25:19;;;;;;;;;;;;;;;17.34;39.62;101598.38;4956392;29;1045;-50
2024/02/20 01:27:45;;;;;;;;;;;;;;;16.46;41.22;101596.56;4950486;28;1050;-49
2024/02/20 01:30:12;;;;;;;;;;;;;;;15.85;42.35;101587.53;4959558;29;1910;-49
2024/02/20 01:32:38;;;;;;;;;;;;;;;15.58;43.33;101589.97;4959648;29;1049;-50
2024/02/20 01:35:04;;;;;;;;;;;;;;;15.31;43.95;101583.44;4960378;29;1177;-51
2024/02/20 01:37:30;;;;;;;;;;;;;;;15.97;42.41;101588.66;4959674;29;839;-51
2024/02/20 01:39:55;;;;;;;;;;;;;;;17.22;39.95;101585.84;4959465;29;1180;-52
2024/02/20 01:42:21;;;;;;;;;;;;;;;16.56;40.78;101576.47;4949168;29;1133;-51
2024/02/20 01:44:48;;;;;;;;;;;;;;;15.89;42.30;101575.84;4956951;29;1109;-50
2024/02/20 01:47:14;;;;;;;;;;;;;;;15.60;43.24;101575.66;4959391;29;2432;-50
2024/02/20 01:49:39;;;;;;;;;;;;;;;15.38;43.61;101570.69;4939184;29;1906;-52
2024/02/20 01:52:11;;;;;;;;;;;;;;;15.93;42.44;101571.22;4949905;29;1149;-51
2024/02/20 01:54:37;;;;;;;;;;;;;;;17.27;39.64;101572.28;4958375;29;1173;-50
2024/02/20 01:57:03;;;;;;;;;;;;;;;16.40;41.28;101568.53;4959411;29;1030;-49
2024/02/20 01:59:29;;;;;;;;;;;;;;;15.84;42.30;101569.06;4959225;29;1137;-51
2024/02/20 02:01:54;;;;;;;;;;;;;;;15.59;43.20;101568.66;4958818;29;902;-51
2024/02/20 02:04:20;;;;;;;;;;;;;;;15.37;43.41;101564.53;4959577;29;1128;-50
2024/02/20 02:06:46;;;;;;;;;;;;;;;16.26;41.79;101564.06;4959384;29;1006;-50
2024/02/20 02:09:12;;;;;;;;;;;;;;;17.20;39.74;101569.16;4959301;29;1898;-52
2024/02/20 02:11:40;;;;;;;;;;;;;;;16.22;41.81;101576.66;4959367;29;1112;-49
2024/02/20 02:14:06;;;;;;;;;;;;;;;15.75;42.54;101570.44;4958922;29;1066;-49
2024/02/20 02:16:32;;;;;;;;;;;;;;;15.49;43.24;101567.44;4958676;29;1072;-49
2024/02/20 02:18:57;;;;;;;;;;;;;;;15.32;43.37;101574.53;4959104;29;1942;-52
2024/02/20 02:21:24;;;;;;;;;;;;;;;15.66;43.24;101566.53;4958557;29;1215;-49
2024/02/20 02:23:49;;;;;;;;;;;;;;;17.00;40.07;101564.06;4958593;29;1069;-49
2024/02/20 02:26:16;;;;;;;;;;;;;;;16.75;40.45;101567.38;4958830;29;839;-50
2024/02/20 02:28:47;;;;;;;;;;;;;;;16.03;41.95;101561.78;4954473;29;1895;-49
2024/02/20 02:31:13;;;;;;;;;;;;;;;15.63;42.65;101569.34;4951281;29;1058;-50
2024/02/20 02:33:38;;;;;;;;;;;;;;;15.45;43.16;101557.97;4945634;29;1197;-52
2024/02/20 02:36:04;;;;;;;;;;;;;;;15.33;43.40;101570.09;4957904;28;1098;-51
2024/02/20 02:38:30;;;;;;;;;;;;;;;16.72;40.96;101565.78;4955378;29;1169;-49
2024/02/20 02:40:55;;;;;;;;;;;;;;;16.87;40.15;101568.44;4956917;29;1138;-53
2024/02/20 02:43:21;;;;;;;;;;;;;;;16.08;41.60;101560.69;4957058;29;1117;-52
2024/02/20 02:45:47;;;;;;;;;;;;;;;15.72;42.54;101560.88;4958219;28;1117;-49
2024/02/20 02:48:12;;;;;;;;;;;;;;;15.48;43.23;101560.44;4958521;29;2710;-50
2024/02/20 02:50:38;;;;;;;;;;;;;;;15.24;43.87;101559.06;4947269;29;1966;-51
2024/02/20 02:53:04;;;;;;;;;;;;;;;16.34;41.42;101563.59;4951757;29;1136;-54
2024/02/20 02:55:29;;;;;;;;;;;;;;;17.22;39.57;101569.88;4949861;29;1093;-53
2024/02/20 02:57:55;;;;;;;;;;;;;;;16.20;41.50;101570.56;4953562;29;1088;-52
2024/02/20 03:00:21;;;;;;;;;;;;;;;15.71;42.83;101561.81;4947485;29;1113;-47
2024/02/20 03:02:49;;;;;;;;;;;;;;;15.44;43.38;101565.06;4955875;29;1140;-52
2024/02/20 03:05:17;;;;;;;;;;;;;;;15.40;43.70;101567.00;4958287;29;1029;-51
2024/02/20 03:07:43;;;;;;;;;;;;;;;16.91;40.58;101579.75;4953252;29;1065;-52
2024/02/20 03:10:09;;;;;;;;;;;;;;;16.71;40.36;101579.16;4950502;29;1914;-47
2024/02/20 03:12:34;;;;;;;;;;;;;;;16.03;41.88;101582.19;4958326;29;1078;-53
2024/02/20 03:15:00;;;;;;;;;;;;;;;15.69;42.99;101581.41;4958011;28;831;-51
2024/02/20 03:17:26;;;;;;;;;;;;;;;15.47;43.55;101585.22;4957639;29;2531;-51
2024/02/20 03:19:52;;;;;;;;;;;;;;;15.67;42.99;101585.00;4957962;29;1053;-50
2024/02/20 03:22:18;;;;;;;;;;;;;;;17.06;40.17;101583.25;4957939;29;1210;-51
2024/02/20 03:24:45;;;;;;;;;;;;;;;16.84;40.23;101589.88;4958056;29;1056;-51
2024/02/20 03:27:11;;;;;;;;;;;;;;;16.09;42.04;101580.97;4957589;29;1066;-51
2024/02/20 03:29:36;;;;;;;;;;;;;;;15.71;42.83;101582.16;4957409;29;1906;-51
2024/02/20 03:32:02;;;;;;;;;;;;;;;15.50;43.16;101585.06;4958087;28;1134;-50
2024/02/20 03:34:27;;;;;;;;;;;;;;;15.25;43.61;101584.59;4958035;29;1170;-52
2024/02/20 03:36:53;;;;;;;;;;;;;;;16.48;41.17;101587.53;4957711;29;1081;-52
2024/02/20 03:39:19;;;;;;;;;;;;;;;17.20;39.61;101593.91;4957824;29;909;-50
2024/02/20 03:41:44;;;;;;;;;;;;;;;16.19;41.76;101587.47;4944939;29;1169;-57
2024/02/20 03:44:10;;;;;;;;;;;;;;;15.74;42.38;101597.91;4957698;29;1049;-54
2024/02/20 03:46:35;;;;;;;;;;;;;;;15.53;43.30;101588.41;4958276;28;1119;-56
2024/02/20 03:49:01;;;;;;;;;;;;;;;15.27;43.89;101587.19;4961554;29;2809;-54
2024/02/20 03:51:26;;;;;;;;;;;;;;;15.85;42.66;101587.53;4960679;28;983;-52
2024/02/20 03:53:52;;;;;;;;;;;;;;;17.10;39.89;101598.13;4961545;29;1174;-47
2024/02/20 03:56:18;;;;;;;;;;;;;;;16.50;40.87;101601.59;4956989;28;998;-52
2024/02/20 03:58:44;;;;;;;;;;;;;;;15.86;42.32;101588.41;4957423;29;1172;-49
2024/02/20 04:01:09;;;;;;;;;;;;;;;15.51;43.31;101592.97;4961188;29;1078;-52
2024/02/20 04:03:35;;;;;;;;;;;;;;;15.33;43.33;101592.13;4960988;29;1415;-48
2024/02/20 04:06:01;;;;;;;;;;;;;;;15.48;43.11;101592.25;4960963;29;1037;-52
2024/02/20 04:08:26;;;;;;;;;;;;;;;16.91;40.17;101591.22;4961509;29;990;-51
2024/02/20 04:10:52;;;;;;;;;;;;;;;17.06;39.77;101586.78;4961286;29;1906;-47
2024/02/20 04:13:18;;;;;;;;;;;;;;;16.14;41.70;101590.38;4961072;29;1244;-55
2024/02/20 04:15:43;;;;;;;;;;;;;;;15.72;42.55;101586.53;4961356;29;1283;-49
2024/02/20 04:18:09;;;;;;;;;;;;;;;15.52;43.25;101592.00;4961462;29;2529;-51
2024/02/20 04:20:34;;;;;;;;;;;;;;;15.34;43.46;101583.25;4960852;29;1102;-48
2024/02/20 04:23:06;;;;;;;;;;;;;;;16.18;41.95;101583.09;4961363;29;1136;-48
2024/02/20 04:25:32;;;;;;;;;;;;;;;17.34;39.46;101587.75;4948541;29;1007;-45
2024/02/20 04:27:58;;;;;;;;;;;;;;;16.46;40.77;101591.25;4948580;29;1134;-50
2024/02/20 04:30:23;;;;;;;;;;;;;;;15.91;42.08;101583.69;4960833;29;1977;-51
2024/02/20 04:32:49;;;;;;;;;;;;;;;15.66;42.74;101585.09;4960926;29;1003;-46
2024/02/20 04:35:14;;;;;;;;;;;;;;;15.31;43.63;101580.78;4960834;29;1102;-48
2024/02/20 04:37:40;;;;;;;;;;;;;;;15.36;43.83;101580.53;4960557;29;1061;-50
2024/02/20 04:40:07;;;;;;;;;;;;;;;16.85;40.49;101586.31;4961041;29;1185;-49
2024/02/20 04:42:32;;;;;;;;;;;;;;;17.06;39.72;101586.78;4960497;29;1096;-49
2024/02/20 04:44:58;;;;;;;;;;;;;;;16.19;41.57;101576.84;4960523;29;1529;-45
2024/02/20 04:47:24;;;;;;;;;;;;;;;15.90;42.37;101576.66;4960586;29;2466;-52
2024/02/20 04:49:50;;;;;;;;;;;;;;;15.50;43.51;101579.75;4944929;29;2057;-47
2024/02/20 04:52:16;;;;;;;;;;;;;;;15.29;43.48;101569.41;4960530;29;1033;-48
2024/02/20 04:54:41;;;;;;;;;;;;;;;16.29;41.70;101579.81;4960412;29;1074;-61
2024/02/20 04:57:08;;;;;;;;;;;;;;;17.28;39.37;101574.84;4957386;29;1137;-51
2024/02/20 04:59:33;;;;;;;;;;;;;;;16.26;41.53;101578.19;4958325;29;1058;-48
2024/02/20 05:02:01;;;;;;;;;;;;;;;15.75;42.97;101566.00;4958043;29;1002;-48
2024/02/20 05:04:26;;;;;;;;;;;;;;;15.51;43.14;101571.75;4953889;29;1071;-47
2024/02/20 05:06:52;;;;;;;;;;;;;;;15.26;43.75;101570.44;4952343;29;1024;-49
2024/02/20 05:09:18;;;;;;;;;;;;;;;16.40;41.48;101568.53;4959769;29;1906;-50
2024/02/20 05:11:43;;;;;;;;;;;;;;;17.37;39.39;101570.72;4960202;28;1003;-50
2024/02/20 05:14:09;;;;;;;;;;;;;;;16.46;41.42;101576.16;4957310;29;1129;-43
2024/02/20 05:16:34;;;;;;;;;;;;;;;17.50;39.18;101578.78;4951986;29;1112;-54
2024/02/20 05:19:00;;;;;;;;;;;;;;;15.65;42.76;101578.03;4959966;29;2244;-46
2024/02/20 05:21:26;;;;;;;;;;;;;;;15.03;44.41;101575.16;4960348;29;1035;-48
2024/02/20 05:23:51;;;;;;;;;;;;;;;17.04;40.47;101579.84;4959994;29;994;-46
2024/02/20 05:26:17;;;;;;;;;;;;;;;16.23;41.74;101586.31;4957412;29;1142;-51
2024/02/20 05:28:42;;;;;;;;;;;;;;;16.52;41.54;101588.22;4958172;29;1978;-49
2024/02/20 05:31:40;;;;;;;;;;;;;;;17.91;38.47;101584.19;4960147;29;1086;-49
2024/02/20 05:34:07;;;;;;;;;;;;;;;15.81;42.81;101582.50;4927158;29;1319;-46
2024/02/20 05:36:33;;;;;;;;;;;;;;;15.38;43.43;101586.59;4959675;29;1058;-45
2024/02/20 05:39:02;;;;;;;;;;;;;;;17.46;39.68;101588.78;4952406;29;1057;-47
2024/02/20 05:41:28;;;;;;;;;;;;;;;15.84;42.79;101587.63;4939378;29;1047;-44
2024/02/20 05:43:57;;;;;;;;;;;;;;;15.83;43.56;101594.72;4959718;29;1003;-44
2024/02/20 05:46:25;;;;;;;;;;;;;;;16.73;41.05;101595.88;4959307;29;1053;-47
2024/02/20 05:48:51;;;;;;;;;;;;;;;15.52;43.66;101594.66;4959510;29;2370;-46
2024/02/20 05:51:17;;;;;;;;;;;;;;;17.02;41.06;101595.88;4955256;29;1006;-46
2024/02/20 05:53:42;;;;;;;;;;;;;;;16.75;40.81;101596.59;4957422;29;1236;-47
2024/02/20 05:56:09;;;;;;;;;;;;;;;15.65;43.42;101593.97;4955623;29;1142;-46
2024/02/20 05:58:36;;;;;;;;;;;;;;;17.00;40.97;101595.97;4951918;29;1240;-46
2024/02/20 06:01:02;;;;;;;;;;;;;;;16.26;41.84;101599.44;4941319;29;1261;-44
2024/02/20 06:03:27;;;;;;;;;;;;;;;15.55;43.68;101607.75;4955276;29;1073;-45
2024/02/20 06:05:53;;;;;;;;;;;;;;;17.41;40.27;101606.84;4957783;29;1058;-44
2024/02/20 06:08:19;;;;;;;;;;;;;;;16.21;42.12;101601.50;4958968;29;1382;-46
2024/02/20 06:10:45;;;;;;;;;;;;;;;16.23;42.48;101615.53;4957000;28;1894;-47
2024/02/20 06:13:10;;;;;;;;;;;;;;;17.39;39.75;101608.72;4957314;28;1303;-44
2024/02/20 06:15:36;;;;;;;;;;;;;;;16.02;42.85;101613.16;4957628;29;1088;-45
2024/02/20 06:18:01;;;;;;;;;;;;;;;15.98;43.49;101611.63;4954621;28;2139;-44
2024/02/20 06:20:28;;;;;;;;;;;;;;;17.13;40.11;101622.69;4958075;29;1010;-43
2024/02/20 06:22:55;;;;;;;;;;;;;;;15.88;43.01;101618.38;4958376;29;1161;-42
2024/02/20 06:25:21;;;;;;;;;;;;;;;16.21;43.11;101616.56;4957972;29;1193;-44
2024/02/20 06:27:47;;;;;;;;;;;;;;;17.53;39.57;101612.31;4955600;29;1134;-47
2024/02/20 06:30:13;;;;;;;;;;;;;;;16.11;42.45;101608.28;4958072;29;1910;-46
2024/02/20 06:32:39;;;;;;;;;;;;;;;15.57;43.56;101623.56;4957989;29;1149;-49
2024/02/20 06:35:05;;;;;;;;;;;;;;;17.24;40.27;101622.03;4940716;29;1425;-42
2024/02/20 06:37:31;;;;;;;;;;;;;;;15.95;42.99;101624.19;4958452;29;1150;-48
2024/02/20 06:39:57;;;;;;;;;;;;;;;15.49;43.71;101612.53;4957656;29;1236;-45
2024/02/20 06:42:22;;;;;;;;;;;;;;;16.33;42.99;101620.31;4957271;29;1438;-43
2024/02/20 06:44:48;;;;;;;;;;;;;;;16.36;42.04;101623.66;4940158;29;1062;-45
2024/02/20 06:47:14;;;;;;;;;;;;;;;15.59;43.33;101624.34;4956610;29;1906;-46
2024/02/20 06:49:39;;;;;;;;;;;;;;;16.76;41.92;101620.44;4945851;29;1952;-49
2024/02/20 06:52:06;;;;;;;;;;;;;;;16.91;40.75;101624.91;4956331;29;989;-46
2024/02/20 06:54:32;;;;;;;;;;;;;;;16.02;43.16;101617.63;4956798;29;1230;-46
2024/02/20 06:56:58;;;;;;;;;;;;;;;18.15;38.76;101620.84;4957412;29;1013;-47
2024/02/20 06:59:24;;;;;;;;;;;;;;;16.51;41.85;101618.38;4957274;29;1358;-48
2024/02/20 07:01:51;;;;;;;;;;;;;;;15.99;42.74;101612.47;4939676;29;1284;-44
2024/02/20 07:04:17;;;;;;;;;;;;;;;15.55;43.70;101607.75;4956605;29;1173;-49
2024/02/20 07:06:43;;;;;;;;;;;;;;;16.28;42.67;101612.63;4957126;29;1252;-47
2024/02/20 07:09:08;;;;;;;;;;;;;;;16.65;41.39;101612.25;4957067;29;1910;-46
2024/02/20 07:11:34;;;;;;;;;;;;;;;15.70;43.24;101613.13;4957036;29;1059;-45
2024/02/20 07:13:59;;;;;;;;;;;;;;;15.43;44.10;101617.22;4956691;29;1288;-47
2024/02/20 07:16:25;;;;;;;;;;;;;;;17.80;39.55;101625.66;4956455;29;1425;-45
2024/02/20 07:18:50;;;;;;;;;;;;;;;16.22;42.53;101620.91;4953299;29;2438;-48
2024/02/20 07:21:16;;;;;;;;;;;;;;;15.65;43.63;101612.53;4939525;29;1196;-45
2024/02/20 07:23:41;;;;;;;;;;;;;;;16.03;43.48;101614.88;4957573;29;1391;-45
2024/02/20 07:26:07;;;;;;;;;;;;;;;17.04;40.60;101622.38;4957145;29;1054;-47
2024/02/20 07:28:33;;;;;;;;;;;;;;;15.72;43.62;101613.91;4957038;29;1144;-48
2024/02/20 07:30:58;;;;;;;;;;;;;;;15.41;44.13;101613.78;4957300;29;1985;-43
2024/02/20 07:33:26;;;;;;;;;;;;;;;17.58;40.01;101613.72;4957483;29;1216;-49
2024/02/20 07:35:51;;;;;;;;;;;;;;;16.06;42.56;101608.56;4957741;29;1208;-47
2024/02/20 07:38:17;;;;;;;;;;;;;;;15.63;43.49;101611.78;4957366;29;1141;-52
2024/02/20 07:40:43;;;;;;;;;;;;;;;16.12;43.01;101605.53;4948455;29;1058;-49
2024/02/20 07:43:09;;;;;;;;;;;;;;;17.54;40.00;101612.22;4957409;29;1170;-49
2024/02/20 07:45:34;;;;;;;;;;;;;;;16.07;43.04;101607.59;4957609;29;1097;-46
2024/02/20 07:48:00;;;;;;;;;;;;;;;16.53;42.99;101612.03;4950670;29;2073;-48
2024/02/20 07:50:25;;;;;;;;;;;;;;;17.50;40.35;101611.56;4956579;29;1906;-49
2024/02/20 07:52:51;;;;;;;;;;;;;;;16.22;43.26;101607.66;4954814;29;1346;-48
2024/02/20 07:55:17;;;;;;;;;;;;;;;17.41;41.32;101604.16;4957401;29;1343;-48
2024/02/20 07:57:43;;;;;;;;;;;;;;;16.71;42.08;101609.25;4957192;29;1100;-50
2024/02/20 08:00:11;;;;;;;;;;;;;;;17.19;41.67;101608.16;4957211;29;1065;-49
2024/02/20 08:02:40;;;;;;;;;;;;;;;18.10;39.19;101600.66;4957094;29;1023;-48
2024/02/20 08:05:05;;;;;;;;;;;;;;;16.70;42.18;101599.53;4946536;29;1025;-44
2024/02/20 08:07:31;;;;;;;;;;;;;;;18.10;39.66;101600.66;4957568;29;1100;-46
2024/02/20 08:09:57;;;;;;;;;;;;;;;17.48;40.61;101607.31;4957732;29;1975;-48
2024/02/20 08:12:22;;;;;;;;;;;;;;;17.01;42.01;101618.97;4957592;29;1033;-48
2024/02/20 08:14:48;;;;;;;;;;;;;;;18.81;37.96;101610.22;4957200;29;1327;-45
2024/02/20 08:17:13;;;;;;;;;;;;;;;14.75;47.39;101607.50;4952646;29;2121;-49
2024/02/20 08:19:40;;;;;;;;;;;;;;;18.21;39.98;101613.31;4957660;29;1074;-50
2024/02/20 08:22:06;;;;;;;;;;;;;;;17.64;40.69;101623.13;4957005;29;1221;-58
2024/02/20 08:24:31;;;;;;;;;;;;;;;17.60;41.35;101626.97;4957208;29;1073;-53
2024/02/20 08:27:01;;;;;;;;;;;;;;;18.94;38.47;101617.34;4957407;29;1024;-48
2024/02/20 08:29:28;;;;;;;;;;;;;;;15.77;45.54;101618.97;4952764;29;1988;-52
2024/02/20 08:31:54;;;;;;;;;;;;;;;18.79;39.13;101624.59;4957310;28;1022;-47
2024/02/20 08:34:21;;;;;;;;;;;;;;;16.18;43.89;101617.63;4960272;29;1094;-49
2024/02/20 08:36:47;;;;;;;;;;;;;;;17.67;41.92;101622.06;4960796;29;1231;-44
2024/02/20 08:39:12;;;;;;;;;;;;;;;19.30;38.30;101613.09;4960744;29;982;-48
2024/02/20 08:41:38;;;;;;;;;;;;;;;15.59;46.66;101615.53;4949180;29;1158;-51
2024/02/20 08:44:03;;;;;;;;;;;;;;;18.84;39.65;101620.66;4960674;29;1018;-48
2024/02/20 08:46:31;;;;;;;;;;;;;;;17.19;42.12;101615.28;4960687;29;1037;-47
2024/02/20 08:48:56;;;;;;;;;;;;;;;17.65;42.62;101626.66;4959912;29;2413;-44
2024/02/20 08:51:22;;;;;;;;;;;;;;;19.63;38.16;101629.47;4960162;29;1034;-50
2024/02/20 08:53:47;;;;;;;;;;;;;;;15.34;46.55;101617.72;4952545;29;1158;-48
2024/02/20 08:56:13;;;;;;;;;;;;;;;18.56;40.54;101617.22;4960310;29;1247;-44
2024/02/20 08:58:38;;;;;;;;;;;;;;;17.90;41.10;101619.75;4960132;29;1164;-49
2024/02/20 09:01:04;;;;;;;;;;;;;;;17.04;44.43;101615.25;4959559;29;1134;-48
2024/02/20 09:03:30;;;;;;;;;;;;;;;19.45;38.81;101616.47;4959937;29;1081;-47
2024/02/20 09:05:55;;;;;;;;;;;;;;;15.95;45.49;101622.38;4957808;29;1018;-48
2024/02/20 09:08:21;;;;;;;;;;;;;;;18.46;41.03;101622.34;4960429;29;1038;-47
2024/02/20 09:10:47;;;;;;;;;;;;;;;18.85;39.39;101619.69;4959983;29;1968;-51
2024/02/20 09:13:12;;;;;;;;;;;;;;;16.32;45.93;101616.81;4959962;29;1135;-49
2024/02/20 09:15:38;;;;;;;;;;;;;;;19.28;39.22;101615.03;4959917;29;1073;-45
2024/02/20 09:18:03;;;;;;;;;;;;;;;16.35;45.00;101611.31;4947951;29;2129;-45
2024/02/20 09:20:29;;;;;;;;;;;;;;;18.03;42.22;101615.34;4960094;29;1014;-45
2024/02/20 09:22:55;;;;;;;;;;;;;;;19.60;38.47;101616.38;4960274;29;1041;-46
2024/02/20 09:25:20;;;;;;;;;;;;;;;15.93;46.76;101611.03;4959511;29;1098;-47
2024/02/20 09:27:47;;;;;;;;;;;;;;;19.04;39.78;101605.09;4959537;29;1097;-48
2024/02/20 09:30:13;;;;;;;;;;;;;;;16.95;43.36;101608.69;4959162;29;1985;-51
2024/02/20 09:32:40;;;;;;;;;;;;;;;17.84;42.19;101603.22;4959601;29;1010;-51
2024/02/20 09:35:06;;;;;;;;;;;;;;;19.79;37.71;101613.19;4959631;29;1041;-46
2024/02/20 09:37:32;;;;;;;;;;;;;;;15.70;46.25;101607.84;4959917;29;1090;-47
2024/02/20 09:39:57;;;;;;;;;;;;;;;19.12;39.04;101604.56;4959042;29;1092;-50
2024/02/20 09:42:27;;;;;;;;;;;;;;;17.70;41.06;101604.09;4958288;29;1320;-51
2024/02/20 09:44:56;;;;;;;;;;;;;;;17.53;42.64;101612.31;4959893;28;1079;-48
2024/02/20 09:47:24;;;;;;;;;;;;;;;19.69;37.75;101605.00;4959263;29;2108;-47
2024/02/20 09:49:50;;;;;;;;;;;;;;;15.52;46.11;101599.09;4959296;29;1918;-48
2024/02/20 09:52:17;;;;;;;;;;;;;;;18.82;39.69;101595.91;4957030;29;1112;-47
2024/02/20 09:54:44;;;;;;;;;;;;;;;17.57;41.28;101597.88;4957236;29;1202;-45
2024/02/20 09:57:09;;;;;;;;;;;;;;;17.23;43.11;101601.69;4959345;29;1104;-47
2024/02/20 09:59:35;;;;;;;;;;;;;;;19.47;38.18;101607.53;4959012;29;1122;-46
2024/02/20 10:02:01;;;;;;;;;;;;;;;15.47;46.22;101602.00;4958966;29;1113;-49
2024/02/20 10:04:29;;;;;;;;;;;;;;;18.54;40.32;101602.28;4959404;29;1299;-47
2024/02/20 10:06:54;;;;;;;;;;;;;;;18.28;39.70;101591.59;4942719;29;1086;-45
2024/02/20 10:09:21;;;;;;;;;;;;;;;16.79;44.08;101597.28;4959526;29;1902;-51
2024/02/20 10:11:46;;;;;;;;;;;;;;;19.35;38.20;101595.91;4958933;29;1009;-45
2024/02/20 10:14:12;;;;;;;;;;;;;;;15.88;44.77;101583.88;4958749;29;1303;-46
2024/02/20 10:16:38;;;;;;;;;;;;;;;18.39;40.34;101585.53;4955243;29;1050;-49
2024/02/20 10:19:06;;;;;;;;;;;;;;;18.99;38.22;101585.91;4946526;29;1945;-49
2024/02/20 10:21:31;;;;;;;;;;;;;;;16.43;44.84;101588.78;4958160;29;1232;-45
2024/02/20 10:24:06;;;;;;;;;;;;;;;19.35;38.22;101591.44;4957759;29;1106;-47
2024/02/20 10:26:35;;;;;;;;;;;;;;;16.26;44.00;101582.66;4958078;29;1284;-51
2024/02/20 10:29:04;;;;;;;;;;;;;;;18.06;41.31;101582.34;4941154;29;1906;-44
2024/02/20 10:31:30;;;;;;;;;;;;;;;18.91;38.57;101578.44;4957364;29;1021;-46
2024/02/20 10:33:55;;;;;;;;;;;;;;;16.38;45.16;101583.75;4957802;29;994;-43
2024/02/20 10:36:21;;;;;;;;;;;;;;;19.24;38.75;101575.31;4958202;29;1057;-47
2024/02/20 10:38:49;;;;;;;;;;;;;;;16.24;43.97;101577.44;4958323;29;1077;-45
2024/02/20 10:41:15;;;;;;;;;;;;;;;18.01;41.42;101571.13;4951028;29;1088;-46
2024/02/20 10:43:45;;;;;;;;;;;;;;;19.40;37.96;101570.59;4956984;29;1154;-43
2024/02/20 10:46:12;;;;;;;;;;;;;;;16.01;45.65;101566.34;4958464;29;1038;-44
2024/02/20 10:48:37;;;;;;;;;;;;;;;19.09;38.87;101568.28;4958423;29;2099;-48
2024/02/20 10:51:03;;;;;;;;;;;;;;;16.61;43.09;101568.22;4957140;29;1992;-47
2024/02/20 10:53:29;;;;;;;;;;;;;;;17.79;41.77;101561.88;4956806;29;1000;-42
2024/02/20 10:55:56;;;;;;;;;;;;;;;19.63;37.76;101564.56;4957898;28;975;-43
2024/02/20 10:58:22;;;;;;;;;;;;;;;15.46;46.76;101557.00;4957396;29;1290;-45
2024/02/20 11:00:47;;;;;;;;;;;;;;;18.87;39.31;101550.28;4957755;29;1038;-40
2024/02/20 11:03:13;;;;;;;;;;;;;;;17.40;41.16;101543.09;4957779;29;1165;-47
2024/02/20 11:05:39;;;;;;;;;;;;;;;17.40;42.45;101549.25;4935552;29;1094;-43
2024/02/20 11:08:08;;;;;;;;;;;;;;;19.51;37.91;101542.28;4958430;29;1006;-43
2024/02/20 11:10:35;;;;;;;;;;;;;;;15.39;46.26;101537.94;4958441;29;1990;-46
2024/02/20 11:13:10;;;;;;;;;;;;;;;18.70;39.54;101538.97;4958013;29;1017;-46
2024/02/20 11:15:36;;;;;;;;;;;;;;;17.47;41.03;101533.75;4957947;29;1164;-47
2024/02/20 11:18:01;;;;;;;;;;;;;;;17.29;42.90;101530.47;4956611;29;2069;-45
2024/02/20 11:20:27;;;;;;;;;;;;;;;19.45;37.84;101528.44;4958236;29;1110;-46
2024/02/20 11:22:52;;;;;;;;;;;;;;;15.45;45.87;101520.84;4952082;29;1154;-45
2024/02/20 11:25:21;;;;;;;;;;;;;;;18.31;40.46;101527.47;4957896;29;1096;-48
2024/02/20 11:27:47;;;;;;;;;;;;;;;17.89;40.14;101512.44;4957352;29;1358;-45
2024/02/20 11:30:19;;;;;;;;;;;;;;;16.59;44.24;101522.28;4956668;29;1911;-47
2024/02/20 11:32:45;;;;;;;;;;;;;;;19.28;38.38;101521.66;4957319;29;1311;-48
2024/02/20 11:35:21;;;;;;;;;;;;;;;15.54;45.65;101517.66;4957035;29;1046;-45
2024/02/20 11:37:47;;;;;;;;;;;;;;;18.57;39.72;101514.13;4956802;29;1143;-45
2024/02/20 11:40:22;;;;;;;;;;;;;;;17.85;40.17;101517.09;4957005;29;1378;-47
2024/02/20 11:42:48;;;;;;;;;;;;;;;17.13;43.04;101523.47;4957597;29;1130;-43
2024/02/20 11:45:15;;;;;;;;;;;;;;;19.39;38.03;101517.34;4956700;29;1171;-49
2024/02/20 11:47:41;;;;;;;;;;;;;;;15.40;45.70;101508.69;4957355;29;1974;-46
2024/02/20 11:50:07;;;;;;;;;;;;;;;18.53;39.70;101508.19;4957292;29;1969;-45
2024/02/20 11:52:33;;;;;;;;;;;;;;;18.20;39.59;101505.06;4957833;29;1014;-44
2024/02/20 11:55:05;;;;;;;;;;;;;;;16.73;43.85;101505.53;4946447;29;1081;-50
2024/02/20 11:57:31;;;;;;;;;;;;;;;19.33;38.09;101505.31;4957458;29;1042;-50
2024/02/20 11:59:57;;;;;;;;;;;;;;;15.64;45.05;101502.09;4957193;29;1177;-47
2024/02/20 12:02:22;;;;;;;;;;;;;;;17.93;41.29;101500.63;4956905;29;1339;-47
2024/02/20 12:04:56;;;;;;;;;;;;;;;18.41;39.30;101487.72;4940005;29;1311;-45
2024/02/20 12:07:25;;;;;;;;;;;;;;;16.52;44.19;101501.44;4950560;28;931;-45
2024/02/20 12:09:54;;;;;;;;;;;;;;;19.18;38.31;101493.94;4955727;29;1911;-45
2024/02/20 12:12:26;;;;;;;;;;;;;;;15.63;45.40;101485.31;4937883;29;1094;-45
2024/02/20 12:15:01;;;;;;;;;;;;;;;18.40;40.02;101491.34;4960783;29;1106;-47
2024/02/20 12:17:37;;;;;;;;;;;;;;;17.98;39.95;101492.34;4958002;28;1938;-48
2024/02/20 12:20:04;;;;;;;;;;;;;;;17.10;43.12;101483.81;4953097;29;1076;-47
2024/02/20 12:22:29;;;;;;;;;;;;;;;19.35;37.83;101495.41;4961045;29;1078;-45
2024/02/20 12:25:17;;;;;;;;;;;;;;;15.45;45.85;101483.72;4961490;29;1109;-44
2024/02/20 12:27:42;;;;;;;;;;;;;;;18.40;40.02;101488.69;4948788;29;1133;-45
2024/02/20 12:30:08;;;;;;;;;;;;;;;17.12;41.75;101492.50;4953730;29;1911;-43
2024/02/20 12:32:35;;;;;;;;;;;;;;;16.89;43.39;101489.47;4960871;29;1057;-46
2024/02/20 12:35:01;;;;;;;;;;;;;;;19.23;38.13;101498.94;4960733;29;1045;-47
2024/02/20 12:37:26;;;;;;;;;;;;;;;15.10;46.45;101498.84;4961037;29;1142;-46
2024/02/20 12:39:52;;;;;;;;;;;;;;;18.43;39.98;101492.00;4961403;29;1114;-45
2024/02/20 12:42:17;;;;;;;;;;;;;;;17.87;40.00;101493.03;4958239;29;1126;-45
2024/02/20 12:44:43;;;;;;;;;;;;;;;16.16;44.97;101492.91;4960709;29;1093;-47